Time;durP1;ratioP1;P1;durP2;ratioP2;P2;SDS_P1;SDS_P2;PMS_P1;PMS_P2;Temp;Humidity;BMP_temperature;BMP_pressure;BME280_temperature;BME280_humidity;BME280_pressure;Samples;Min_cycle;Max_cycle;Signal;HPM_P1;HPM_P2
2023/01/29 00:02:25;;;;;;;28.70;16.30;;;3.30;99.90;;;;;;5103541;27;20440;-72
2023/01/29 00:04:50;;;;;;;27.05;16.08;;;3.30;99.90;;;;;;5110854;27;20035;-73
2023/01/29 00:07:16;;;;;;;29.70;17.83;;;3.30;99.90;;;;;;5109436;27;20043;-71
2023/01/29 00:09:42;;;;;;;29.33;17.45;;;3.30;99.90;;;;;;5108420;27;20031;-72
2023/01/29 00:12:10;;;;;;;29.67;16.25;;;3.30;99.90;;;;;;5107978;27;20035;-72
2023/01/29 00:14:35;;;;;;;30.92;16.50;;;3.20;99.90;;;;;;5105399;27;20035;-72
2023/01/29 00:17:01;;;;;;;33.50;16.45;;;3.30;99.90;;;;;;5110600;27;20100;-73
2023/01/29 00:19:27;;;;;;;30.65;16.63;;;3.30;99.90;;;;;;5106088;27;20038;-75
2023/01/29 00:21:52;;;;;;;28.40;15.80;;;3.30;99.90;;;;;;5113228;27;20491;-72
2023/01/29 00:24:18;;;;;;;29.10;16.13;;;3.20;99.90;;;;;;5104833;27;20031;-74
2023/01/29 00:26:43;;;;;;;29.42;15.65;;;3.30;99.90;;;;;;5095006;27;20046;-76
2023/01/29 00:29:09;;;;;;;31.48;16.70;;;3.30;99.90;;;;;;5103936;27;20070;-73
2023/01/29 00:31:35;;;;;;;28.98;16.15;;;3.30;99.90;;;;;;5105770;28;20094;-73
2023/01/29 00:34:00;;;;;;;28.17;15.95;;;3.30;99.90;;;;;;5107063;27;20046;-72
2023/01/29 00:36:26;;;;;;;27.67;15.30;;;3.30;99.90;;;;;;5109688;27;20394;-73
2023/01/29 00:39:02;;;;;;;32.97;16.70;;;3.20;99.90;;;;;;5123142;27;20130;-71
2023/01/29 00:46:58;;;;;;;29.58;16.52;;;3.30;99.90;;;;;;5109494;27;20400;-74
2023/01/29 00:49:24;;;;;;;31.13;16.33;;;3.30;99.90;;;;;;5109209;27;20113;-74
2023/01/29 00:54:34;;;;;;;28.20;15.48;;;3.30;99.90;;;;;;5102344;27;20043;-72
2023/01/29 00:57:01;;;;;;;30.77;15.48;;;3.30;99.90;;;;;;5120727;27;20051;-73
2023/01/29 00:59:27;;;;;;;29.35;16.13;;;3.30;99.90;;;;;;5102842;27;20500;-72
2023/01/29 01:04:37;;;;;;;29.88;16.80;;;3.30;99.90;;;;;;5099847;27;20336;-73
2023/01/29 01:07:03;;;;;;;26.73;14.98;;;3.30;99.90;;;;;;5097949;27;20386;-72
2023/01/29 01:12:12;;;;;;;32.42;16.52;;;3.30;99.90;;;;;;5107666;27;20117;-73
2023/01/29 01:14:41;;;;;;;29.65;16.92;;;3.30;99.90;;;;;;5105847;27;20043;-73
2023/01/29 01:17:08;;;;;;;29.45;16.55;;;3.40;99.90;;;;;;5110693;27;20521;-74
2023/01/29 01:19:34;;;;;;;29.50;17.00;;;3.40;99.90;;;;;;5104489;28;20065;-74
2023/01/29 01:21:59;;;;;;;28.08;15.93;;;3.40;99.90;;;;;;5109151;28;20068;-73
2023/01/29 01:24:25;;;;;;;28.48;16.05;;;3.30;99.90;;;;;;5108750;28;20043;-73
2023/01/29 01:26:50;;;;;;;28.85;16.42;;;3.40;99.90;;;;;;5110468;28;20415;-73
2023/01/29 01:29:16;;;;;;;29.67;15.60;;;3.40;99.90;;;;;;5109212;28;20065;-72
2023/01/29 01:31:41;;;;;;;26.30;15.13;;;3.40;99.90;;;;;;5110622;28;20469;-72
2023/01/29 01:34:07;;;;;;;26.67;15.68;;;3.40;99.90;;;;;;5099014;28;20117;-73
2023/01/29 01:36:33;;;;;;;28.98;15.93;;;3.40;99.90;;;;;;5110120;27;20035;-73
2023/01/29 01:38:58;;;;;;;27.63;15.23;;;3.40;99.90;;;;;;5110360;27;20047;-73
2023/01/29 01:41:24;;;;;;;29.58;15.95;;;3.40;99.90;;;;;;5111788;28;20135;-73
2023/01/29 01:43:59;;;;;;;31.30;16.23;;;3.40;99.90;;;;;;5125584;27;20054;-73
2023/01/29 01:46:28;;;;;;;27.27;15.38;;;3.40;99.90;;;;;;5105172;27;20447;-73
2023/01/29 01:49:00;;;;;;;27.33;15.20;;;3.40;99.90;;;;;;5096239;27;20055;-73
2023/01/29 01:51:29;;;;;;;29.30;16.20;;;3.40;99.90;;;;;;5102893;28;20035;-74
2023/01/29 01:54:52;;;;;;;31.40;16.10;;;3.40;99.90;;;;;;5106351;27;20083;-67
2023/01/29 01:57:23;;;;;;;30.27;16.27;;;3.40;99.90;;;;;;5092329;27;20035;-67
2023/01/29 02:01:11;;;;;;;30.63;16.00;;;3.40;99.90;;;;;;5092435;27;20056;-67
2023/01/29 02:10:52;;;;;;;26.38;15.20;;;3.50;99.90;;;;;;5065045;28;20040;-67
2023/01/29 02:14:02;;;;;;;25.88;14.73;;;3.50;99.90;;;;;;5068797;28;20068;-67
2023/01/29 02:21:38;;;;;;;28.52;14.90;;;3.50;99.90;;;;;;5091456;27;20101;-67
2023/01/29 02:24:43;;;;;;;27.95;15.48;;;3.50;99.90;;;;;;5091295;28;20471;-67
2023/01/29 02:28:06;;;;;;;26.13;15.02;;;3.50;99.90;;;;;;5086347;28;20456;-67
2023/01/29 02:31:19;;;;;;;26.45;14.90;;;3.50;99.90;;;;;;4980717;28;20556;-67
2023/01/29 02:34:21;;;;;;;28.95;14.70;;;3.60;99.90;;;;;;5032103;28;20528;-67
2023/01/29 02:40:54;;;;;;;30.52;16.40;;;3.60;99.90;;;;;;4973189;28;20042;-67
2023/01/29 02:43:46;;;;;;;28.15;15.60;;;3.60;99.90;;;;;;4969816;28;20054;-67
2023/01/29 02:46:49;;;;;;;32.40;16.17;;;3.60;99.90;;;;;;5026909;28;20164;-67
2023/01/29 02:49:52;;;;;;;26.90;15.45;;;3.60;99.90;;;;;;5041057;28;20075;-67
2023/01/29 02:52:28;;;;;;;28.10;16.00;;;3.60;99.90;;;;;;5029128;28;20043;-68
2023/01/29 02:55:22;;;;;;;27.58;16.25;;;3.60;99.90;;;;;;5069357;27;20055;-67
2023/01/29 02:58:11;;;;;;;28.52;15.90;;;3.60;99.90;;;;;;5124848;27;20047;-67
2023/01/29 03:00:57;;;;;;;27.60;16.20;;;3.60;99.90;;;;;;5083664;27;20080;-67
2023/01/29 03:03:31;;;;;;;30.40;16.83;;;3.60;99.90;;;;;;5109008;27;20460;-67
2023/01/29 03:06:33;;;;;;;29.92;16.50;;;3.60;99.90;;;;;;5109677;27;20126;-67
2023/01/29 03:09:18;;;;;;;29.38;16.40;;;3.60;99.90;;;;;;5092193;27;20396;-66
2023/01/29 03:11:57;;;;;;;27.70;16.67;;;3.60;99.90;;;;;;5101341;27;20469;-67
2023/01/29 03:17:28;;;;;;;31.65;17.77;;;3.60;99.90;;;;;;5128935;27;20496;-67
2023/01/29 03:19:55;;;;;;;31.65;18.13;;;3.50;99.90;;;;;;5106322;27;20482;-67
2023/01/29 03:22:29;;;;;;;33.42;18.40;;;3.60;99.90;;;;;;5098698;27;20038;-66
2023/01/29 03:34:03;;;;;;;37.47;20.23;;;3.60;99.90;;;;;;5125156;27;20120;-68
2023/01/29 03:36:54;;;;;;;35.85;19.83;;;3.60;99.90;;;;;;5079807;27;20039;-67
2023/01/29 03:39:21;;;;;;;38.85;19.25;;;3.60;99.90;;;;;;5088306;27;20039;-67
2023/01/29 03:42:21;;;;;;;40.33;20.48;;;3.60;99.90;;;;;;5107668;27;20046;-67
2023/01/29 03:45:14;;;;;;;37.13;19.90;;;3.60;99.90;;;;;;5106341;27;20096;-67
2023/01/29 03:47:50;;;;;;;36.85;21.17;;;3.60;99.90;;;;;;5110459;27;20095;-67
2023/01/29 03:50:21;;;;;;;39.92;21.23;;;3.60;99.90;;;;;;5094471;27;20039;-67
2023/01/29 03:52:58;;;;;;;38.27;21.53;;;3.60;99.90;;;;;;5111882;27;20045;-66
2023/01/29 03:56:02;;;;;;;41.60;22.40;;;3.60;99.90;;;;;;5107771;27;20469;-67
2023/01/29 03:58:31;;;;;;;40.40;21.90;;;3.70;99.90;;;;;;5104228;27;20054;-66
2023/01/29 04:01:26;;;;;;;41.95;22.58;;;3.60;99.90;;;;;;5104700;27;20115;-67
2023/01/29 04:04:01;;;;;;;43.40;24.25;;;3.60;99.90;;;;;;5087645;27;20141;-67
2023/01/29 04:06:31;;;;;;;45.47;22.88;;;3.60;99.90;;;;;;5105709;27;20039;-67
2023/01/29 04:09:10;;;;;;;40.17;22.15;;;3.60;99.90;;;;;;5106562;27;20045;-67
2023/01/29 04:11:40;;;;;;;46.03;25.20;;;3.60;99.90;;;;;;5087242;27;20062;-67
2023/01/29 04:14:09;;;;;;;42.35;22.98;;;3.60;99.90;;;;;;5103307;27;20183;-67
2023/01/29 04:16:39;;;;;;;47.45;24.40;;;3.60;99.90;;;;;;5089052;27;20603;-67
2023/01/29 04:19:06;;;;;;;41.35;23.52;;;3.60;99.90;;;;;;5105443;27;20035;-66
2023/01/29 04:21:32;;;;;;;41.63;24.33;;;3.60;99.90;;;;;;5102282;27;20044;-67
2023/01/29 04:23:58;;;;;;;45.38;24.98;;;3.60;99.90;;;;;;5108111;27;20092;-67
2023/01/29 04:26:27;;;;;;;44.95;24.63;;;3.70;99.90;;;;;;5086751;27;20770;-66
2023/01/29 04:29:15;;;;;;;46.80;24.55;;;3.60;99.90;;;;;;5087242;27;20169;-67
2023/01/29 04:32:01;;;;;;;43.95;25.27;;;3.60;99.90;;;;;;5105461;27;20059;-67
2023/01/29 04:34:31;;;;;;;43.78;25.20;;;3.70;99.90;;;;;;5105883;27;20027;-67
2023/01/29 04:37:32;;;;;;;45.75;25.55;;;3.70;99.90;;;;;;5098321;27;20457;-67
2023/01/29 04:40:19;;;;;;;42.70;24.42;;;3.60;99.90;;;;;;5102760;27;20045;-67
2023/01/29 04:42:51;;;;;;;43.33;24.45;;;3.70;99.90;;;;;;5103228;27;20035;-67
2023/01/29 04:45:29;;;;;;;47.65;25.85;;;3.70;99.90;;;;;;5103571;27;20151;-67
2023/01/29 04:48:14;;;;;;;46.33;25.25;;;3.70;99.90;;;;;;5104592;27;20047;-68
2023/01/29 04:50:48;;;;;;;44.72;24.95;;;3.70;99.90;;;;;;5105298;27;20326;-67
2023/01/29 04:53:46;;;;;;;43.03;24.67;;;3.70;99.90;;;;;;5103797;27;20039;-67
2023/01/29 04:56:33;;;;;;;47.03;25.80;;;3.70;99.90;;;;;;5103941;27;20042;-66
2023/01/29 04:59:06;;;;;;;44.60;25.50;;;3.70;99.90;;;;;;5102096;27;20043;-66
2023/01/29 05:01:34;;;;;;;47.53;26.05;;;3.70;99.90;;;;;;5104489;27;20414;-67
2023/01/29 05:04:20;;;;;;;47.97;27.45;;;3.70;99.90;;;;;;5101096;27;20050;-67
2023/01/29 05:06:48;;;;;;;48.50;27.02;;;3.70;99.90;;;;;;5097480;27;20043;-66
2023/01/29 05:09:16;;;;;;;47.38;27.73;;;3.70;99.90;;;;;;5106069;27;20038;-67
2023/01/29 05:11:45;;;;;;;46.03;27.38;;;3.70;99.90;;;;;;5104265;28;20027;-67
2023/01/29 05:14:13;;;;;;;45.38;25.65;;;3.70;99.90;;;;;;5086555;27;20050;-67
2023/01/29 05:16:48;;;;;;;45.25;26.00;;;3.70;99.90;;;;;;5086243;27;20084;-67
2023/01/29 05:19:15;;;;;;;47.13;25.48;;;3.80;99.90;;;;;;5103516;27;20421;-67
2023/01/29 05:21:48;;;;;;;46.38;25.85;;;3.70;99.90;;;;;;5105100;27;20035;-67
2023/01/29 05:24:23;;;;;;;45.05;24.33;;;3.70;99.90;;;;;;5102881;28;20054;-67
2023/01/29 05:29:40;;;;;;;45.65;25.60;;;3.70;99.90;;;;;;5107189;27;20183;-67
2023/01/29 05:32:06;;;;;;;43.47;24.77;;;3.70;99.90;;;;;;5105557;27;20069;-66
2023/01/29 05:34:33;;;;;;;45.78;25.67;;;3.70;99.90;;;;;;5112103;27;20074;-67
2023/01/29 05:36:58;;;;;;;46.28;25.52;;;3.70;99.90;;;;;;5109330;27;20059;-66
2023/01/29 05:39:24;;;;;;;42.97;24.23;;;3.70;99.90;;;;;;5112638;27;20046;-67
2023/01/29 05:41:50;;;;;;;44.60;24.83;;;3.70;99.90;;;;;;5128287;27;20047;-67
2023/01/29 05:44:17;;;;;;;42.08;24.38;;;3.60;99.90;;;;;;5111650;27;20117;-67
2023/01/29 05:46:43;;;;;;;44.15;24.33;;;3.60;99.90;;;;;;5109379;27;20391;-67
2023/01/29 05:49:11;;;;;;;44.13;25.33;;;3.70;99.90;;;;;;5110032;27;20039;-67
2023/01/29 05:51:37;;;;;;;45.10;25.30;;;3.70;99.90;;;;;;5111623;27;20122;-66
2023/01/29 05:54:03;;;;;;;47.25;24.83;;;3.70;99.90;;;;;;5109353;27;20130;-67
2023/01/29 05:56:39;;;;;;;43.58;25.25;;;3.60;99.90;;;;;;5092732;27;20035;-67
2023/01/29 05:59:06;;;;;;;47.22;25.70;;;3.60;99.90;;;;;;5108050;27;20135;-67
2023/01/29 06:01:32;;;;;;;45.22;25.83;;;3.60;99.90;;;;;;5106585;27;20096;-67
2023/01/29 06:03:57;;;;;;;44.78;24.50;;;3.60;99.90;;;;;;5093051;27;20032;-68
2023/01/29 06:06:23;;;;;;;45.45;25.48;;;3.60;99.90;;;;;;5094397;27;20027;-66
2023/01/29 06:08:50;;;;;;;45.63;25.75;;;3.60;99.90;;;;;;5111916;27;20533;-67
2023/01/29 06:11:17;;;;;;;44.63;25.38;;;3.60;99.90;;;;;;5110094;27;20749;-66
2023/01/29 06:13:43;;;;;;;44.72;25.27;;;3.60;99.90;;;;;;5109378;27;20118;-66
2023/01/29 06:16:11;;;;;;;47.67;25.52;;;3.60;99.90;;;;;;5095684;27;20374;-67
2023/01/29 06:18:37;;;;;;;44.83;25.75;;;3.60;99.90;;;;;;5105163;27;20078;-67
2023/01/29 06:21:05;;;;;;;47.42;26.83;;;3.60;99.90;;;;;;5090875;27;20039;-67
2023/01/29 06:23:31;;;;;;;49.40;27.42;;;3.60;99.90;;;;;;5110568;27;20079;-66
2023/01/29 06:26:01;;;;;;;47.60;27.08;;;3.60;99.90;;;;;;5108137;27;20038;-67
2023/01/29 06:28:26;;;;;;;49.40;26.33;;;3.60;99.90;;;;;;5110693;27;20034;-66
2023/01/29 06:30:55;;;;;;;49.85;26.58;;;3.60;99.90;;;;;;5112524;27;20039;-66
2023/01/29 06:33:21;;;;;;;48.70;27.40;;;3.60;99.90;;;;;;5110351;27;20461;-66
2023/01/29 06:35:46;;;;;;;45.30;26.33;;;3.60;99.90;;;;;;5106899;27;20039;-67
2023/01/29 06:38:12;;;;;;;49.75;27.35;;;3.60;99.90;;;;;;5109477;27;20077;-66
2023/01/29 06:40:39;;;;;;;47.38;27.15;;;3.60;99.90;;;;;;5127020;27;20078;-66
2023/01/29 06:43:05;;;;;;;46.58;26.95;;;3.60;99.90;;;;;;5104449;27;20035;-67
2023/01/29 06:45:31;;;;;;;47.95;26.77;;;3.60;99.90;;;;;;5103939;27;20447;-67
2023/01/29 06:47:57;;;;;;;52.40;26.85;;;3.60;99.90;;;;;;5104588;27;20122;-67
2023/01/29 06:50:23;;;;;;;46.95;26.77;;;3.60;99.90;;;;;;5105458;27;20452;-66
2023/01/29 06:52:48;;;;;;;47.65;27.20;;;3.60;99.90;;;;;;5103934;27;20039;-67
2023/01/29 06:55:14;;;;;;;48.88;26.02;;;3.60;99.90;;;;;;5107373;27;20480;-66
2023/01/29 06:57:40;;;;;;;48.13;26.92;;;3.60;99.90;;;;;;5101396;27;20039;-67
2023/01/29 07:00:08;;;;;;;50.78;27.65;;;3.60;99.90;;;;;;5104717;27;20064;-66
2023/01/29 07:02:33;;;;;;;49.05;28.15;;;3.60;99.90;;;;;;5102835;27;20047;-67
2023/01/29 07:05:00;;;;;;;52.05;27.02;;;3.60;99.90;;;;;;5104788;27;20079;-68
2023/01/29 07:07:27;;;;;;;49.83;27.85;;;3.60;99.90;;;;;;5098499;27;20490;-67
2023/01/29 07:09:52;;;;;;;48.63;27.38;;;3.60;99.90;;;;;;5097661;27;20484;-67
2023/01/29 07:12:19;;;;;;;51.45;28.15;;;3.60;99.90;;;;;;5103552;27;20039;-66
2023/01/29 07:14:45;;;;;;;49.33;27.13;;;3.60;99.90;;;;;;5103524;27;20088;-66
2023/01/29 07:17:16;;;;;;;51.85;26.92;;;3.60;99.90;;;;;;5104980;27;20759;-67
2023/01/29 07:19:53;;;;;;;51.03;27.73;;;3.60;99.90;;;;;;5126165;27;20416;-67
2023/01/29 07:22:22;;;;;;;50.35;26.58;;;3.60;99.90;;;;;;5102387;27;20138;-67
2023/01/29 07:24:49;;;;;;;53.92;28.42;;;3.60;99.90;;;;;;5104684;27;20398;-65
2023/01/29 07:27:15;;;;;;;53.00;28.60;;;3.60;99.90;;;;;;5104532;27;20473;-67
2023/01/29 07:29:41;;;;;;;53.60;27.63;;;3.60;99.90;;;;;;5105787;27;20038;-67
2023/01/29 07:32:07;;;;;;;52.92;28.77;;;3.60;99.90;;;;;;5105513;27;20042;-67
2023/01/29 07:34:33;;;;;;;52.15;27.73;;;3.60;99.90;;;;;;5102298;27;20040;-67
2023/01/29 07:36:58;;;;;;;52.65;28.00;;;3.60;99.90;;;;;;5106108;27;20047;-68
2023/01/29 07:39:25;;;;;;;54.83;28.15;;;3.60;99.90;;;;;;5099354;28;20039;-66
2023/01/29 07:41:50;;;;;;;50.92;27.77;;;3.60;99.90;;;;;;5100368;27;20043;-65
2023/01/29 07:44:16;;;;;;;50.30;27.05;;;3.60;99.90;;;;;;5104671;27;20511;-66
2023/01/29 07:46:42;;;;;;;53.88;27.33;;;3.60;99.90;;;;;;5104808;27;20031;-66
2023/01/29 07:49:07;;;;;;;54.65;27.95;;;3.60;99.90;;;;;;5105927;27;20070;-65
2023/01/29 07:51:33;;;;;;;53.67;26.55;;;3.60;99.90;;;;;;5104975;27;20110;-64
2023/01/29 07:53:58;;;;;;;52.78;26.75;;;3.60;99.90;;;;;;5114287;27;20041;-66
2023/01/29 07:56:27;;;;;;;49.92;27.08;;;3.60;99.90;;;;;;5099227;27;20434;-66
2023/01/29 07:58:52;;;;;;;55.33;27.98;;;3.70;99.90;;;;;;5101927;27;20405;-66
2023/01/29 08:01:19;;;;;;;53.83;26.88;;;3.60;99.90;;;;;;5102516;27;20035;-67
2023/01/29 08:03:44;;;;;;;49.90;25.70;;;3.60;99.90;;;;;;5101552;27;20043;-67
2023/01/29 08:06:10;;;;;;;53.78;27.23;;;3.60;99.90;;;;;;5102565;27;20049;-65
2023/01/29 08:08:35;;;;;;;53.03;26.77;;;3.60;99.90;;;;;;5104684;27;20035;-67
2023/01/29 08:11:04;;;;;;;50.00;26.45;;;3.60;99.90;;;;;;5107510;27;20567;-66
2023/01/29 08:13:31;;;;;;;51.80;26.33;;;3.60;99.90;;;;;;5103052;27;20039;-64
2023/01/29 08:16:03;;;;;;;53.35;25.75;;;3.60;99.90;;;;;;5125539;27;20036;-65
2023/01/29 08:18:32;;;;;;;53.00;26.67;;;3.60;99.90;;;;;;5101691;27;20059;-67
2023/01/29 08:21:02;;;;;;;52.22;26.58;;;3.60;99.90;;;;;;5102134;28;20039;-67
2023/01/29 08:23:28;;;;;;;51.67;27.63;;;3.60;99.90;;;;;;5092916;27;20047;-65
2023/01/29 08:25:54;;;;;;;51.80;26.15;;;3.70;99.90;;;;;;5109433;27;20061;-66
2023/01/29 08:28:19;;;;;;;53.40;26.90;;;3.70;99.90;;;;;;5103534;27;20043;-66
2023/01/29 08:30:45;;;;;;;54.25;26.80;;;3.70;99.90;;;;;;5106717;27;20094;-67
2023/01/29 08:33:11;;;;;;;50.20;26.27;;;3.70;99.90;;;;;;5108535;27;20035;-66
2023/01/29 08:35:37;;;;;;;48.97;26.48;;;3.80;99.90;;;;;;5109720;27;20127;-67
2023/01/29 08:38:04;;;;;;;49.67;25.75;;;3.70;99.90;;;;;;5116451;27;20081;-65
2023/01/29 08:40:33;;;;;;;49.33;26.40;;;3.80;99.90;;;;;;5107399;27;20047;-66
2023/01/29 08:43:04;;;;;;;53.50;26.73;;;3.80;99.90;;;;;;5090517;27;20047;-65
2023/01/29 08:45:31;;;;;;;51.35;26.83;;;3.80;99.90;;;;;;5104809;28;20134;-66
2023/01/29 08:47:57;;;;;;;53.67;26.10;;;3.80;99.90;;;;;;5126054;27;20432;-67
2023/01/29 08:50:23;;;;;;;51.20;25.85;;;3.80;99.90;;;;;;5113975;27;20043;-67
2023/01/29 08:52:48;;;;;;;49.05;26.15;;;3.80;99.90;;;;;;5088403;27;20050;-66
2023/01/29 08:55:14;;;;;;;49.55;25.45;;;3.80;99.90;;;;;;5095076;27;20031;-65
2023/01/29 08:57:39;;;;;;;51.92;26.95;;;3.90;99.90;;;;;;5126077;27;20035;-66
2023/01/29 09:00:06;;;;;;;50.95;26.05;;;3.80;99.90;;;;;;5099667;27;20031;-67
2023/01/29 09:02:32;;;;;;;52.55;26.38;;;3.90;99.90;;;;;;5095064;27;20452;-67
2023/01/29 09:04:57;;;;;;;52.15;26.48;;;3.90;99.90;;;;;;5112254;27;20126;-66
2023/01/29 09:07:23;;;;;;;52.13;25.92;;;3.90;99.90;;;;;;5111620;27;20421;-65
2023/01/29 09:09:49;;;;;;;51.45;27.63;;;3.90;99.90;;;;;;5106388;27;20053;-67
2023/01/29 09:12:14;;;;;;;49.47;25.67;;;3.90;99.90;;;;;;5107541;27;20038;-65
2023/01/29 09:14:40;;;;;;;51.13;26.63;;;3.90;99.90;;;;;;5109921;27;20400;-68
2023/01/29 09:17:05;;;;;;;48.45;26.65;;;4.00;99.90;;;;;;5111862;27;20402;-67
2023/01/29 09:19:31;;;;;;;50.60;25.83;;;4.00;99.90;;;;;;5107620;27;20046;-67
2023/01/29 09:21:56;;;;;;;50.53;25.83;;;4.10;99.90;;;;;;5112165;27;20035;-67
2023/01/29 09:24:22;;;;;;;49.45;25.65;;;4.10;99.90;;;;;;5110810;28;20626;-66
2023/01/29 09:26:48;;;;;;;51.65;26.45;;;4.20;99.90;;;;;;5130949;28;20050;-66
2023/01/29 09:29:13;;;;;;;49.60;26.20;;;4.20;99.90;;;;;;5104805;28;20088;-68
2023/01/29 09:31:39;;;;;;;51.95;26.83;;;4.30;99.90;;;;;;5105074;27;20513;-67
2023/01/29 09:34:04;;;;;;;50.85;25.73;;;4.30;99.90;;;;;;5107131;28;20050;-68
2023/01/29 09:36:30;;;;;;;48.22;25.13;;;4.40;99.90;;;;;;5111899;28;20047;-68
2023/01/29 09:38:55;;;;;;;50.20;27.13;;;4.40;99.90;;;;;;5104298;28;20043;-68
2023/01/29 09:41:50;;;;;;;46.60;25.55;;;4.40;99.90;;;;;;5120797;28;20039;-66
2023/01/29 09:44:53;;;;;;;49.95;25.00;;;4.40;99.90;;;;;;5109322;28;20097;-67
2023/01/29 09:47:22;;;;;;;50.78;26.30;;;4.50;99.90;;;;;;5110104;28;20043;-66
2023/01/29 09:49:57;;;;;;;48.42;25.85;;;4.50;99.90;;;;;;5079724;27;20663;-65
2023/01/29 09:52:26;;;;;;;52.78;27.95;;;4.50;99.90;;;;;;5125911;28;20043;-68
2023/01/29 09:55:14;;;;;;;44.47;25.17;;;4.50;99.90;;;;;;5109594;28;20050;-65
2023/01/29 09:57:47;;;;;;;48.15;25.88;;;4.50;99.90;;;;;;5091820;28;20134;-66
2023/01/29 10:00:21;;;;;;;50.42;26.50;;;4.60;99.90;;;;;;5100144;28;20058;-67
2023/01/29 10:03:17;;;;;;;47.10;25.88;;;4.60;99.90;;;;;;5101796;27;20473;-66
2023/01/29 10:05:53;;;;;;;46.78;24.85;;;4.60;99.90;;;;;;5101499;28;20044;-67
2023/01/29 10:08:25;;;;;;;48.00;25.17;;;4.70;99.90;;;;;;5097941;27;20056;-67
2023/01/29 10:11:11;;;;;;;45.05;25.85;;;4.70;99.90;;;;;;5110020;28;20067;-67
2023/01/29 10:13:54;;;;;;;47.78;25.90;;;4.70;99.90;;;;;;5126182;27;20042;-67
2023/01/29 10:16:35;;;;;;;46.85;27.08;;;4.70;99.90;;;;;;5114565;27;20042;-66
2023/01/29 10:19:08;;;;;;;50.88;27.27;;;4.70;99.90;;;;;;5094108;27;20043;-66
2023/01/29 10:21:40;;;;;;;48.58;26.65;;;4.70;99.90;;;;;;5112395;27;20066;-66
2023/01/29 10:24:17;;;;;;;47.40;25.38;;;4.80;99.90;;;;;;5103746;27;20137;-66
2023/01/29 10:26:43;;;;;;;47.13;26.13;;;4.80;99.90;;;;;;5112646;27;20035;-66
2023/01/29 10:29:16;;;;;;;46.55;25.52;;;4.70;99.90;;;;;;5107905;27;20107;-67
2023/01/29 10:31:45;;;;;;;50.83;26.83;;;4.70;99.90;;;;;;5113409;27;20038;-69
2023/01/29 10:34:37;;;;;;;46.50;25.83;;;4.70;99.90;;;;;;5116988;27;20035;-68
2023/01/29 10:37:20;;;;;;;44.90;25.20;;;4.70;99.90;;;;;;5108325;27;20461;-67
2023/01/29 10:39:46;;;;;;;47.28;25.80;;;4.70;99.90;;;;;;5113325;27;20277;-66
2023/01/29 10:42:34;;;;;;;49.80;27.50;;;4.70;99.90;;;;;;5096858;27;20392;-66
2023/01/29 10:45:06;;;;;;;48.92;25.67;;;4.70;99.90;;;;;;5108215;27;20477;-67
2023/01/29 10:47:47;;;;;;;46.28;25.52;;;4.70;99.90;;;;;;5112325;27;20389;-66
2023/01/29 10:50:32;;;;;;;44.90;26.08;;;4.70;99.90;;;;;;5113160;27;20039;-68
2023/01/29 10:53:28;;;;;;;51.28;27.90;;;4.70;99.90;;;;;;5109213;27;20204;-67
2023/01/29 10:56:00;;;;;;;50.42;26.25;;;4.70;99.90;;;;;;5112914;27;20049;-68
2023/01/29 10:58:30;;;;;;;47.30;25.55;;;4.80;99.90;;;;;;5101945;27;20043;-67
2023/01/29 11:00:56;;;;;;;47.25;26.50;;;4.80;99.90;;;;;;5109603;27;20579;-68
2023/01/29 11:03:25;;;;;;;51.45;28.58;;;4.90;99.90;;;;;;5107004;27;20046;-67
2023/01/29 11:06:01;;;;;;;50.50;27.05;;;4.90;99.90;;;;;;5111666;27;20117;-67
2023/01/29 11:08:50;;;;;;;49.25;26.88;;;4.90;99.90;;;;;;5107729;27;20392;-68
2023/01/29 11:11:21;;;;;;;47.92;26.73;;;4.90;99.90;;;;;;5089367;27;20115;-67
2023/01/29 11:13:54;;;;;;;49.13;26.63;;;5.00;99.90;;;;;;5112351;27;20066;-69
2023/01/29 11:16:19;;;;;;;49.95;28.98;;;5.10;99.90;;;;;;5107731;27;20447;-66
2023/01/29 11:19:00;;;;;;;48.58;27.52;;;5.10;99.90;;;;;;5110005;27;20170;-67
2023/01/29 11:21:27;;;;;;;48.08;26.92;;;5.10;99.90;;;;;;5109893;27;20051;-67
2023/01/29 11:24:11;;;;;;;48.42;26.73;;;5.10;99.90;;;;;;5109398;27;20409;-68
2023/01/29 11:26:40;;;;;;;48.33;26.83;;;5.20;99.90;;;;;;5107667;27;20492;-69
2023/01/29 11:29:26;;;;;;;48.70;26.77;;;5.20;99.90;;;;;;5113193;27;20481;-67
2023/01/29 11:31:52;;;;;;;47.17;26.17;;;5.20;99.90;;;;;;5105041;27;20054;-67
2023/01/29 11:34:20;;;;;;;51.28;28.17;;;5.30;99.90;;;;;;5098175;27;20031;-67
2023/01/29 11:36:56;;;;;;;46.20;26.05;;;5.30;99.90;;;;;;5111266;27;20027;-69
2023/01/29 11:39:23;;;;;;;50.10;27.60;;;5.20;99.90;;;;;;5109615;27;20042;-68
2023/01/29 11:42:03;;;;;;;47.67;27.50;;;5.20;99.90;;;;;;5095864;27;20507;-67
2023/01/29 11:44:37;;;;;;;46.88;25.70;;;5.20;99.90;;;;;;5105025;27;20035;-66
2023/01/29 11:47:14;;;;;;;46.45;27.95;;;5.20;99.90;;;;;;5105284;27;20043;-67
2023/01/29 11:49:46;;;;;;;50.83;27.60;;;5.20;99.90;;;;;;5103280;27;20541;-65
2023/01/29 11:52:14;;;;;;;46.42;26.42;;;5.20;99.90;;;;;;5103807;27;20118;-68
2023/01/29 11:54:47;;;;;;;50.33;27.77;;;5.20;99.90;;;;;;5100751;27;20044;-66
2023/01/29 11:57:26;;;;;;;46.03;25.70;;;5.20;99.90;;;;;;5100661;27;20049;-67
2023/01/29 11:59:54;;;;;;;49.50;26.38;;;5.10;99.90;;;;;;5107656;27;20709;-67
2023/01/29 12:02:36;;;;;;;44.00;25.77;;;5.10;99.90;;;;;;5105972;27;20126;-67
2023/01/29 12:05:16;;;;;;;49.00;26.98;;;5.10;99.90;;;;;;5108436;27;20371;-68
2023/01/29 12:07:45;;;;;;;46.67;26.15;;;5.10;99.90;;;;;;5113446;27;20042;-66
2023/01/29 12:10:34;;;;;;;48.05;26.17;;;5.10;99.90;;;;;;5111162;27;20114;-67
2023/01/29 12:13:09;;;;;;;43.65;24.13;;;5.10;99.90;;;;;;5101492;27;20080;-67
2023/01/29 12:15:36;;;;;;;45.70;25.20;;;5.10;99.90;;;;;;5106494;27;20393;-66
2023/01/29 12:18:11;;;;;;;45.28;26.40;;;5.20;99.90;;;;;;5106166;27;20039;-67
2023/01/29 12:20:45;;;;;;;46.33;25.02;;;5.20;99.90;;;;;;5125736;27;20048;-66
2023/01/29 12:23:48;;;;;;;47.08;25.40;;;5.20;99.90;;;;;;5100818;27;20435;-67
2023/01/29 12:26:21;;;;;;;47.38;25.90;;;5.20;99.90;;;;;;5012833;27;20055;-65
2023/01/29 12:29:15;;;;;;;46.90;25.42;;;5.20;99.90;;;;;;5103042;27;20045;-68
2023/01/29 12:32:10;;;;;;;49.85;25.42;;;5.20;99.90;;;;;;5101185;27;20046;-67
2023/01/29 12:34:49;;;;;;;49.40;27.30;;;5.20;99.90;;;;;;5096767;27;20442;-66
2023/01/29 12:37:29;;;;;;;49.47;25.13;;;5.20;99.90;;;;;;5105871;28;20416;-67
2023/01/29 12:39:55;;;;;;;47.38;27.23;;;5.10;99.90;;;;;;5104525;27;20046;-67
2023/01/29 12:42:22;;;;;;;48.90;27.33;;;5.10;99.90;;;;;;5100032;27;20027;-66
2023/01/29 12:44:56;;;;;;;48.15;26.38;;;5.10;99.90;;;;;;5101635;27;20038;-66
2023/01/29 12:47:27;;;;;;;44.75;24.98;;;5.00;99.90;;;;;;5104258;27;20064;-68
2023/01/29 12:49:59;;;;;;;48.20;26.27;;;5.00;99.90;;;;;;5099300;27;20039;-67
2023/01/29 12:52:38;;;;;;;47.50;25.63;;;5.00;99.90;;;;;;5098450;27;20035;-67
2023/01/29 12:55:11;;;;;;;47.22;24.80;;;5.00;99.90;;;;;;5101288;27;20043;-67
2023/01/29 12:57:46;;;;;;;48.30;26.08;;;4.90;99.90;;;;;;5099865;27;20378;-68
2023/01/29 13:00:13;;;;;;;48.13;25.95;;;4.90;99.90;;;;;;5112400;27;20035;-67
2023/01/29 13:02:48;;;;;;;52.08;27.65;;;4.90;99.90;;;;;;5102668;27;20520;-68
2023/01/29 13:05:29;;;;;;;49.25;26.85;;;4.90;99.90;;;;;;5099348;27;20038;-68
2023/01/29 13:08:04;;;;;;;53.25;26.77;;;4.90;99.90;;;;;;5100072;27;20477;-68
2023/01/29 13:10:37;;;;;;;51.08;27.33;;;4.90;99.90;;;;;;5099882;27;20035;-68
2023/01/29 13:13:11;;;;;;;;;;;4.90;99.90;;;;;;5103317;28;20036;-67
2023/01/29 13:15:39;;;;;;;46.97;26.27;;;5.00;99.90;;;;;;5096151;27;20491;-68
2023/01/29 13:18:36;;;;;;;51.03;26.42;;;5.00;99.90;;;;;;5096674;27;20042;-68
2023/01/29 13:21:03;;;;;;;52.70;27.20;;;5.00;99.90;;;;;;5123483;27;20589;-68
2023/01/29 13:23:42;;;;;;;48.70;26.38;;;5.00;99.90;;;;;;5104712;27;20039;-67
2023/01/29 13:26:08;;;;;;;53.80;26.40;;;5.00;99.90;;;;;;5105680;28;20049;-67
2023/01/29 13:28:35;;;;;;;54.17;28.52;;;5.00;99.90;;;;;;5096963;27;20439;-69
2023/01/29 13:31:31;;;;;;;49.75;27.70;;;5.00;99.90;;;;;;5099707;28;20035;-68
2023/01/29 13:34:15;;;;;;;52.92;28.10;;;5.00;99.90;;;;;;5104172;28;20452;-68
2023/01/29 13:36:44;;;;;;;49.92;27.02;;;5.00;99.90;;;;;;5102240;28;20031;-67
2023/01/29 13:39:25;;;;;;;54.67;27.63;;;5.10;99.90;;;;;;5102181;28;20056;-66
2023/01/29 13:41:52;;;;;;;48.30;26.85;;;5.10;99.90;;;;;;5102114;28;20039;-68
2023/01/29 13:44:38;;;;;;;53.75;26.38;;;5.10;99.90;;;;;;5097763;27;20040;-67
2023/01/29 13:47:10;;;;;;;52.20;27.52;;;5.10;99.90;;;;;;5098182;27;20039;-67
2023/01/29 13:50:15;;;;;;;54.08;27.40;;;5.10;99.90;;;;;;5084215;27;20031;-68
2023/01/29 13:52:45;;;;;;;49.10;26.20;;;5.20;99.90;;;;;;5105000;27;20043;-68
2023/01/29 13:55:13;;;;;;;52.70;27.50;;;5.10;99.90;;;;;;5103417;27;20116;-67